createdAt,value
2023-07-06T00:00:19.229Z,24.98
2023-07-06T00:01:18.270Z,24.97
2023-07-06T00:02:19.260Z,24.98
2023-07-06T00:03:18.285Z,24.97
2023-07-06T00:04:19.408Z,24.97
2023-07-06T00:05:19.339Z,24.97
2023-07-06T00:06:19.333Z,24.97
2023-07-06T00:07:19.351Z,24.96
2023-07-06T00:08:18.381Z,24.96
2023-07-06T00:09:19.382Z,24.96
2023-07-06T00:10:18.409Z,24.96
2023-07-06T00:11:19.434Z,24.96
2023-07-06T00:12:18.455Z,24.95
2023-07-06T00:13:18.497Z,24.96
2023-07-06T00:14:19.516Z,24.95
2023-07-06T00:15:18.520Z,24.95
2023-07-06T00:16:19.598Z,24.95
2023-07-06T00:17:19.597Z,24.94
2023-07-06T00:18:19.608Z,24.93
2023-07-06T00:19:19.696Z,24.94
2023-07-06T00:20:19.622Z,24.93
2023-07-06T00:21:19.661Z,24.94
2023-07-06T00:22:19.686Z,24.93
2023-07-06T00:23:18.696Z,24.93
2023-07-06T00:24:18.707Z,24.93
2023-07-06T00:25:19.728Z,24.93
2023-07-06T00:26:19.752Z,24.93
2023-07-06T00:27:19.778Z,24.93
2023-07-06T00:28:18.774Z,24.93
2023-07-06T00:29:19.816Z,24.92
2023-07-06T00:30:19.829Z,24.93
2023-07-06T00:31:18.853Z,24.91
2023-07-06T00:32:18.882Z,24.92
2023-07-06T00:33:18.881Z,24.92
2023-07-06T00:34:19.898Z,24.91
2023-07-06T00:35:19.916Z,24.91
2023-07-06T00:36:19.939Z,24.91
2023-07-06T00:37:20.010Z,24.91
2023-07-06T00:38:19.982Z,24.91
2023-07-06T00:39:18.994Z,24.90
2023-07-06T00:40:20.015Z,24.91
2023-07-06T00:41:19.035Z,24.90
2023-07-06T00:42:19.079Z,24.90
2023-07-06T00:43:20.082Z,24.91
2023-07-06T00:44:20.083Z,24.90
2023-07-06T00:45:20.121Z,24.90
2023-07-06T00:46:20.152Z,24.89
2023-07-06T00:47:19.232Z,24.89
2023-07-06T00:48:20.187Z,24.89
2023-07-06T00:49:20.185Z,24.89
2023-07-06T00:50:19.238Z,24.90
2023-07-06T00:51:20.236Z,24.88
2023-07-06T00:52:20.252Z,24.88
2023-07-06T00:53:20.300Z,24.88
2023-07-06T00:54:20.289Z,24.88
2023-07-06T00:55:20.329Z,24.88
2023-07-06T00:56:19.336Z,24.87
2023-07-06T00:57:20.374Z,24.87
2023-07-06T00:58:19.448Z,24.88
2023-07-06T00:59:19.412Z,24.87
2023-07-06T01:00:19.417Z,24.87
2023-07-06T01:01:20.531Z,24.86
2023-07-06T01:02:20.700Z,24.86
2023-07-06T01:03:19.565Z,24.85
2023-07-06T01:04:19.519Z,24.85
2023-07-06T01:05:20.537Z,24.85
2023-07-06T01:06:20.549Z,24.85
2023-07-06T01:07:19.569Z,24.86
2023-07-06T01:08:20.590Z,24.85
2023-07-06T01:09:20.675Z,24.85
2023-07-06T01:10:20.748Z,24.84
2023-07-06T01:11:20.664Z,24.84
2023-07-06T01:12:20.703Z,24.84
2023-07-06T01:13:20.737Z,24.84
2023-07-06T01:14:19.736Z,24.84
2023-07-06T01:15:20.794Z,24.83
2023-07-06T01:16:19.994Z,24.84
2023-07-06T01:17:19.942Z,24.83
2023-07-06T01:18:20.894Z,24.83
2023-07-06T01:19:19.944Z,24.83
2023-07-06T01:20:20.965Z,24.83
2023-07-06T01:21:20.010Z,24.83
2023-07-06T01:22:20.044Z,24.82
2023-07-06T01:23:20.085Z,24.83
2023-07-06T01:24:21.117Z,24.82
2023-07-06T01:25:21.186Z,24.82
2023-07-06T01:26:20.247Z,24.81
2023-07-06T01:27:21.229Z,24.81
2023-07-06T01:28:21.289Z,24.81
2023-07-06T01:29:21.350Z,24.81
2023-07-06T01:30:20.359Z,24.81
2023-07-06T01:31:21.399Z,24.80
2023-07-06T01:32:21.448Z,24.81
2023-07-06T01:33:21.446Z,24.80
2023-07-06T01:34:21.468Z,24.80
2023-07-06T01:35:21.502Z,24.80
2023-07-06T01:36:20.540Z,24.79
2023-07-06T01:37:21.560Z,24.79
2023-07-06T01:38:20.583Z,24.78
2023-07-06T01:39:20.636Z,24.79
2023-07-06T01:40:20.663Z,24.78
2023-07-06T01:41:21.698Z,24.78
2023-07-06T01:42:20.704Z,24.78
2023-07-06T01:43:22.238Z,24.77
2023-07-06T01:44:21.780Z,24.78
2023-07-06T01:45:21.808Z,24.78
2023-07-06T01:46:21.873Z,24.77
2023-07-06T01:47:21.876Z,24.77
2023-07-06T01:48:21.913Z,24.77
2023-07-06T01:49:20.964Z,24.77
2023-07-06T01:50:21.965Z,24.77
2023-07-06T01:51:20.981Z,24.76
2023-07-06T01:52:22.003Z,24.76
2023-07-06T01:53:21.041Z,24.76
2023-07-06T01:54:21.045Z,24.76
2023-07-06T01:55:21.095Z,24.76
2023-07-06T01:56:21.109Z,24.75
2023-07-06T01:57:21.162Z,24.75
2023-07-06T01:58:21.177Z,24.75
2023-07-06T01:59:22.199Z,24.75
2023-07-06T02:00:22.237Z,24.74
2023-07-06T02:01:21.329Z,24.75
2023-07-06T02:02:21.415Z,24.73
2023-07-06T02:03:21.406Z,24.74
2023-07-06T02:04:21.356Z,24.73
2023-07-06T02:05:22.397Z,24.73
2023-07-06T02:06:22.421Z,24.74
2023-07-06T02:07:22.456Z,24.73
2023-07-06T02:08:22.485Z,24.73
2023-07-06T02:09:22.514Z,24.73
2023-07-06T02:10:21.562Z,24.73
2023-07-06T02:12:56.898Z,24.71
2023-07-06T02:14:40.672Z,24.67
2023-07-06T02:15:41.662Z,24.69
2023-07-06T02:16:41.731Z,24.70
2023-07-06T02:17:41.685Z,24.70
2023-07-06T02:18:41.650Z,24.69
2023-07-06T02:19:41.643Z,24.70
2023-07-06T02:20:41.624Z,24.69
2023-07-06T02:21:41.620Z,24.69
2023-07-06T02:22:41.626Z,24.70
2023-07-06T02:23:41.624Z,24.69
2023-07-06T02:24:40.630Z,24.70
2023-07-06T02:25:40.604Z,24.69
2023-07-06T02:26:41.585Z,24.69
2023-07-06T02:27:40.567Z,24.69
2023-07-06T02:28:41.620Z,24.69
2023-07-06T02:29:41.565Z,24.69
2023-07-06T02:30:40.585Z,24.69
2023-07-06T02:31:41.573Z,24.67
2023-07-06T02:32:40.667Z,24.68
2023-07-06T02:33:41.534Z,24.68
2023-07-06T02:34:41.542Z,24.68
2023-07-06T02:35:40.528Z,24.68
2023-07-06T02:36:40.535Z,24.67
2023-07-06T02:37:41.509Z,24.67
2023-07-06T02:38:40.512Z,24.67
2023-07-06T02:39:41.515Z,24.67
2023-07-06T02:40:40.503Z,24.67
2023-07-06T02:41:40.503Z,24.66
2023-07-06T02:42:40.487Z,24.67
2023-07-06T02:43:40.475Z,24.67
2023-07-06T02:44:41.483Z,24.66
2023-07-06T02:45:41.462Z,24.66
2023-07-06T02:46:41.484Z,24.66
2023-07-06T02:47:40.488Z,24.66
2023-07-06T02:48:40.460Z,24.66
2023-07-06T02:49:40.455Z,24.65
2023-07-06T02:50:40.428Z,24.65
2023-07-06T02:51:41.418Z,24.65
2023-07-06T02:52:41.420Z,24.64
2023-07-06T02:53:40.400Z,24.64
2023-07-06T02:54:41.422Z,24.64
2023-07-06T02:55:40.406Z,24.64
2023-07-06T02:56:41.381Z,24.63
2023-07-06T02:57:41.545Z,24.64
2023-07-06T02:58:40.377Z,24.64
2023-07-06T02:59:40.380Z,24.63
2023-07-06T03:00:41.392Z,24.63
2023-07-06T03:01:41.367Z,24.63
2023-07-06T03:02:41.469Z,24.63
2023-07-06T03:03:40.356Z,24.62
2023-07-06T03:04:41.345Z,24.63
2023-07-06T03:05:41.427Z,24.63
2023-07-06T03:06:40.365Z,24.62
2023-07-06T03:07:40.365Z,24.62
2023-07-06T03:08:41.337Z,24.63
2023-07-06T03:09:41.324Z,24.62
2023-07-06T03:10:41.331Z,24.62
2023-07-06T03:11:41.294Z,24.62
2023-07-06T03:12:40.390Z,24.61
2023-07-06T03:13:41.356Z,24.61
2023-07-06T03:14:41.339Z,24.62
2023-07-06T03:15:40.340Z,24.61
2023-07-06T03:16:41.742Z,24.61
2023-07-06T03:17:40.496Z,24.61
2023-07-06T03:18:41.400Z,24.60
2023-07-06T03:19:40.441Z,24.60
2023-07-06T03:20:40.434Z,24.60
2023-07-06T03:21:40.447Z,24.59
2023-07-06T03:22:40.478Z,24.59
2023-07-06T03:23:40.484Z,24.59
2023-07-06T03:24:41.518Z,24.59
2023-07-06T03:25:41.523Z,24.59
2023-07-06T03:26:40.714Z,24.58
2023-07-06T03:27:40.577Z,24.58
2023-07-06T03:28:41.161Z,24.58
2023-07-06T03:29:40.619Z,24.57
2023-07-06T03:30:41.646Z,24.58
2023-07-06T03:31:41.718Z,24.58
2023-07-06T03:32:41.757Z,24.57
2023-07-06T03:33:40.711Z,24.57
2023-07-06T03:34:41.736Z,24.57
2023-07-06T03:35:41.748Z,24.57
2023-07-06T03:36:41.812Z,24.57
2023-07-06T03:37:41.798Z,24.57
2023-07-06T03:38:40.834Z,24.57
2023-07-06T03:39:40.846Z,24.57
2023-07-06T03:40:40.865Z,24.57
2023-07-06T03:41:41.875Z,24.56
2023-07-06T03:42:40.914Z,24.57
2023-07-06T03:43:41.952Z,24.56
2023-07-06T03:44:41.967Z,24.56
2023-07-06T03:45:41.067Z,24.56
2023-07-06T03:46:41.009Z,24.56
2023-07-06T03:47:41.135Z,24.56
2023-07-06T03:48:41.089Z,24.56
2023-07-06T03:49:41.094Z,24.55
2023-07-06T03:50:41.129Z,24.55
2023-07-06T03:51:41.143Z,24.54
2023-07-06T03:52:41.193Z,24.55
2023-07-06T03:53:41.216Z,24.55
2023-07-06T03:54:42.252Z,24.55
2023-07-06T03:55:42.438Z,24.55
2023-07-06T03:56:41.309Z,24.54
2023-07-06T03:57:54.660Z,24.54
2023-07-06T03:58:42.318Z,24.54
2023-07-06T03:59:42.326Z,24.54
2023-07-06T04:00:42.305Z,24.53
2023-07-06T04:01:41.327Z,24.54
2023-07-06T04:02:42.335Z,24.53
2023-07-06T04:03:41.364Z,24.54
2023-07-06T04:04:41.365Z,24.53
2023-07-06T04:05:41.284Z,24.53
2023-07-06T04:06:41.261Z,24.54
2023-07-06T04:07:42.271Z,24.53
2023-07-06T04:08:43.361Z,24.53
2023-07-06T04:09:42.243Z,24.53
2023-07-06T04:10:42.245Z,24.53
2023-07-06T04:11:42.255Z,24.53
2023-07-06T04:12:42.241Z,24.52
2023-07-06T04:13:42.252Z,24.53
2023-07-06T04:14:42.275Z,24.53
2023-07-06T04:15:41.382Z,24.53
2023-07-06T04:16:42.372Z,24.52
2023-07-06T04:17:43.940Z,24.53
2023-07-06T04:18:42.353Z,24.52
2023-07-06T04:19:41.339Z,24.52
2023-07-06T04:20:41.359Z,24.52
2023-07-06T04:21:42.331Z,24.52
2023-07-06T04:22:41.318Z,24.52
2023-07-06T04:23:43.875Z,24.52
2023-07-06T04:24:42.303Z,24.52
2023-07-06T04:25:42.307Z,24.52
2023-07-06T04:26:42.298Z,24.52
2023-07-06T04:27:42.270Z,24.52
2023-07-06T04:28:42.277Z,24.52
2023-07-06T04:29:42.269Z,24.52
2023-07-06T04:30:42.263Z,24.52
2023-07-06T04:31:42.305Z,24.52
2023-07-06T04:32:42.262Z,24.52
2023-07-06T04:33:41.236Z,24.52
2023-07-06T04:34:41.218Z,24.51
2023-07-06T04:35:42.279Z,24.52
2023-07-06T04:36:42.249Z,24.51
2023-07-06T04:37:41.219Z,24.52
2023-07-06T04:38:41.198Z,24.51
2023-07-06T04:39:41.183Z,24.52
2023-07-06T04:40:41.186Z,24.51
2023-07-06T04:41:42.170Z,24.51
2023-07-06T04:42:42.162Z,24.52
2023-07-06T04:43:42.173Z,24.51
2023-07-06T04:44:42.154Z,24.51
2023-07-06T04:45:42.158Z,24.52
2023-07-06T04:46:41.172Z,24.51
2023-07-06T04:47:41.188Z,24.51
2023-07-06T04:48:42.154Z,24.51
2023-07-06T04:49:42.127Z,24.51
2023-07-06T04:50:41.174Z,24.50
2023-07-06T04:51:41.119Z,24.51
2023-07-06T04:52:41.127Z,24.51
2023-07-06T04:53:42.099Z,24.51
2023-07-06T04:54:42.097Z,24.50
2023-07-06T04:55:42.079Z,24.50
2023-07-06T04:56:42.090Z,24.50
2023-07-06T04:57:41.059Z,24.51
2023-07-06T04:58:42.061Z,24.50
2023-07-06T04:59:42.140Z,24.51
2023-07-06T05:00:41.541Z,24.51
2023-07-06T05:01:42.183Z,24.51
2023-07-06T05:02:41.260Z,24.52
2023-07-06T05:03:41.281Z,24.53
2023-07-06T05:04:42.304Z,24.54
2023-07-06T05:05:41.440Z,24.54
2023-07-06T05:06:41.405Z,24.55
2023-07-06T05:07:42.427Z,24.56
2023-07-06T05:08:41.483Z,24.55
2023-07-06T05:09:42.503Z,24.56
2023-07-06T05:10:42.543Z,24.57
2023-07-06T05:11:42.571Z,24.57
2023-07-06T05:12:42.594Z,24.58
2023-07-06T05:13:42.664Z,24.59
2023-07-06T05:14:42.247Z,24.59
2023-07-06T05:15:41.727Z,24.59
2023-07-06T05:16:42.806Z,24.60
2023-07-06T05:17:41.801Z,24.60
2023-07-06T05:18:42.843Z,24.61
2023-07-06T05:19:41.856Z,24.60
2023-07-06T05:20:42.875Z,24.60
2023-07-06T05:21:42.909Z,24.60
2023-07-06T05:22:41.919Z,24.61
2023-07-06T05:23:41.956Z,24.61
2023-07-06T05:24:43.024Z,24.61
2023-07-06T05:25:43.027Z,24.61
2023-07-06T05:26:43.056Z,24.61
2023-07-06T05:27:43.089Z,24.61
2023-07-06T05:28:43.116Z,24.62
2023-07-06T05:29:42.127Z,24.61
2023-07-06T05:30:42.193Z,24.60
2023-07-06T05:31:43.197Z,24.61
2023-07-06T05:32:42.250Z,24.62
2023-07-06T05:33:43.231Z,24.62
2023-07-06T05:34:43.258Z,24.62
2023-07-06T05:35:43.308Z,24.62
2023-07-06T05:36:42.335Z,24.63
2023-07-06T05:37:42.350Z,24.63
2023-07-06T05:38:42.395Z,24.63
2023-07-06T05:39:43.429Z,24.64
2023-07-06T05:40:43.505Z,24.64
2023-07-06T05:41:43.469Z,24.65
2023-07-06T05:42:42.513Z,24.66
2023-07-06T05:43:42.536Z,24.66
2023-07-06T05:44:43.560Z,24.67
2023-07-06T05:45:43.596Z,24.67
2023-07-06T05:46:43.672Z,24.68
2023-07-06T05:47:42.641Z,24.69
2023-07-06T05:48:43.656Z,24.70
2023-07-06T05:49:42.680Z,24.72
2023-07-06T05:50:42.712Z,24.74
2023-07-06T05:51:42.721Z,24.76
2023-07-06T05:52:43.741Z,24.77
2023-07-06T05:53:42.749Z,24.78
2023-07-06T05:54:43.767Z,24.78
2023-07-06T05:55:43.802Z,24.77
2023-07-06T05:56:42.852Z,24.76
2023-07-06T05:57:43.855Z,24.78
2023-07-06T05:58:42.887Z,24.79
2023-07-06T05:59:42.886Z,24.80
2023-07-06T06:00:42.932Z,24.82
2023-07-06T06:01:42.988Z,24.82
2023-07-06T06:02:42.973Z,24.82
2023-07-06T06:03:43.021Z,24.83
2023-07-06T06:04:42.998Z,24.83
2023-07-06T06:05:43.017Z,24.85
2023-07-06T06:06:43.907Z,24.87
2023-07-06T06:07:44.053Z,24.90
2023-07-06T06:08:44.061Z,24.92
2023-07-06T06:09:43.093Z,24.94
2023-07-06T06:10:43.116Z,24.95
2023-07-06T06:11:43.137Z,24.97
2023-07-06T06:12:44.298Z,24.97
2023-07-06T06:13:44.206Z,24.96
2023-07-06T06:14:43.180Z,24.96
2023-07-06T06:15:44.208Z,24.96
2023-07-06T06:16:44.242Z,24.94
2023-07-06T06:17:43.340Z,24.94
2023-07-06T06:18:44.274Z,24.94
2023-07-06T06:19:43.285Z,24.93
2023-07-06T06:20:43.336Z,24.92
2023-07-06T06:21:43.352Z,24.92
2023-07-06T06:22:44.363Z,24.92
2023-07-06T06:23:43.452Z,24.91
2023-07-06T06:24:44.396Z,24.92
2023-07-06T06:25:43.399Z,24.92
2023-07-06T06:26:44.416Z,24.92
2023-07-06T06:27:44.427Z,24.92
2023-07-06T06:28:44.502Z,24.92
2023-07-06T06:29:43.537Z,24.91
2023-07-06T06:30:43.506Z,24.91
2023-07-06T06:31:44.574Z,24.92
2023-07-06T06:32:44.613Z,24.91
2023-07-06T06:33:44.567Z,24.91
2023-07-06T06:34:43.612Z,24.91
2023-07-06T06:35:44.607Z,24.91
2023-07-06T06:36:44.638Z,24.91
2023-07-06T06:37:43.659Z,24.91
2023-07-06T06:38:44.669Z,24.91
2023-07-06T06:39:43.685Z,24.90
2023-07-06T06:40:43.728Z,24.90
2023-07-06T06:41:43.729Z,24.91
2023-07-06T06:42:44.750Z,24.90
2023-07-06T06:43:44.776Z,24.90
2023-07-06T06:44:43.825Z,24.91
2023-07-06T06:45:44.814Z,24.90
2023-07-06T06:46:44.846Z,24.91
2023-07-06T06:47:43.906Z,24.90
2023-07-06T06:48:43.880Z,24.90
2023-07-06T06:49:44.918Z,24.90
2023-07-06T06:50:43.933Z,24.90
2023-07-06T06:51:44.939Z,24.90
2023-07-06T06:52:44.970Z,24.90
2023-07-06T06:53:44.971Z,24.90
2023-07-06T06:54:44.009Z,24.90
2023-07-06T06:55:44.016Z,24.91
2023-07-06T06:56:44.029Z,24.91
2023-07-06T06:57:44.052Z,24.91
2023-07-06T06:58:45.267Z,24.91
2023-07-06T06:59:45.104Z,24.91
2023-07-06T07:00:45.163Z,24.92
2023-07-06T07:01:44.156Z,24.92
2023-07-06T07:02:44.297Z,24.93
2023-07-06T07:03:44.241Z,24.93
2023-07-06T07:04:45.180Z,24.93
2023-07-06T07:05:44.208Z,24.94
2023-07-06T07:06:45.208Z,24.95
2023-07-06T07:07:44.254Z,24.95
2023-07-06T07:08:45.247Z,24.96
2023-07-06T07:09:44.269Z,24.97
2023-07-06T07:10:45.295Z,24.96
2023-07-06T07:11:45.392Z,24.97
2023-07-06T07:12:45.303Z,24.98
2023-07-06T07:13:44.368Z,24.98
2023-07-06T07:14:44.356Z,25.00
2023-07-06T07:15:44.386Z,24.99
2023-07-06T07:16:45.554Z,25.00
2023-07-06T07:17:44.403Z,25.01
2023-07-06T07:18:44.405Z,25.02
2023-07-06T07:19:47.878Z,25.02
2023-07-06T07:20:44.421Z,25.04
2023-07-06T07:21:44.399Z,25.05
2023-07-06T07:22:44.388Z,25.07
2023-07-06T07:23:44.420Z,25.08
2023-07-06T07:24:45.501Z,25.10
2023-07-06T07:25:45.385Z,25.12
2023-07-06T07:26:44.394Z,25.14
2023-07-06T07:27:45.361Z,25.16
2023-07-06T07:28:45.359Z,25.19
2023-07-06T07:29:45.358Z,25.21
2023-07-06T07:30:44.343Z,25.23
2023-07-06T07:31:44.395Z,25.24
2023-07-06T07:32:45.392Z,25.24
2023-07-06T07:33:45.335Z,25.24
2023-07-06T07:34:45.331Z,25.24
2023-07-06T07:35:45.321Z,25.24
2023-07-06T07:36:45.307Z,25.25
2023-07-06T07:37:45.312Z,25.25
2023-07-06T07:38:45.304Z,25.27
2023-07-06T07:39:45.291Z,25.29
2023-07-06T07:40:45.287Z,25.30
2023-07-06T07:41:44.318Z,25.33
2023-07-06T07:42:45.279Z,25.35
2023-07-06T07:43:45.266Z,25.37
2023-07-06T07:44:44.283Z,25.40
2023-07-06T07:45:45.277Z,25.42
2023-07-06T07:46:45.507Z,25.45
2023-07-06T07:47:45.313Z,25.49
2023-07-06T07:48:45.334Z,25.52
2023-07-06T07:49:45.286Z,25.56
2023-07-06T07:50:44.298Z,25.60
2023-07-06T07:51:45.314Z,25.66
2023-07-06T07:52:44.332Z,25.71
2023-07-06T07:53:44.348Z,25.75
2023-07-06T07:54:45.380Z,25.73
2023-07-06T07:55:45.392Z,25.73
2023-07-06T07:56:44.480Z,25.71
2023-07-06T07:57:44.496Z,25.70
2023-07-06T07:58:45.564Z,25.73
2023-07-06T07:59:45.606Z,25.75
2023-07-06T08:00:45.689Z,25.74
2023-07-06T08:01:45.685Z,25.73
2023-07-06T08:02:45.776Z,25.73
2023-07-06T08:03:45.807Z,25.72
2023-07-06T08:05:44.786Z,25.70
2023-07-06T08:06:45.809Z,25.69
2023-07-06T08:07:44.803Z,25.69
2023-07-06T08:08:44.819Z,25.69
2023-07-06T08:09:44.824Z,25.69
2023-07-06T08:10:44.805Z,25.70
2023-07-06T08:11:45.820Z,25.70
2023-07-06T08:12:45.821Z,25.71
2023-07-06T08:13:44.891Z,25.72
2023-07-06T08:14:44.820Z,25.71
2023-07-06T08:15:44.837Z,25.71
2023-07-06T08:16:45.820Z,25.72
2023-07-06T08:17:45.827Z,25.73
2023-07-06T08:18:45.893Z,25.75
2023-07-06T08:20:24.254Z,25.78
2023-07-06T08:21:11.032Z,25.81
2023-07-06T08:22:45.861Z,25.93
2023-07-06T08:23:45.846Z,25.96
2023-07-06T08:24:45.837Z,25.98
2023-07-06T08:25:45.842Z,26.01
2023-07-06T08:26:45.832Z,26.05
2023-07-06T08:27:45.830Z,26.10
2023-07-06T08:28:45.839Z,26.13
2023-07-06T08:29:45.806Z,26.14
2023-07-06T08:30:44.843Z,26.17
2023-07-06T08:31:45.835Z,26.19
2023-07-06T08:32:45.874Z,26.20
2023-07-06T08:33:44.782Z,26.25
2023-07-06T08:34:45.791Z,26.28
2023-07-06T08:35:44.763Z,26.31
2023-07-06T08:36:44.784Z,26.34
2023-07-06T08:37:44.755Z,26.34
2023-07-06T08:38:45.118Z,26.34
2023-07-06T08:39:44.752Z,26.34
2023-07-06T08:40:44.729Z,26.37
2023-07-06T08:41:45.746Z,26.38
2023-07-06T08:42:45.754Z,26.39
2023-07-06T08:43:45.720Z,26.39
2023-07-06T08:44:44.706Z,26.38
2023-07-06T08:45:44.730Z,26.38
2023-07-06T08:46:44.770Z,26.37
2023-07-06T08:47:44.720Z,26.37
2023-07-06T08:48:44.702Z,26.37
2023-07-06T08:49:44.695Z,26.36
2023-07-06T08:50:45.681Z,26.38
2023-07-06T08:51:45.683Z,26.37
2023-07-06T08:52:45.059Z,26.38
2023-07-06T08:53:45.753Z,26.39
2023-07-06T08:54:44.804Z,26.40
2023-07-06T08:55:45.841Z,26.41
2023-07-06T08:56:45.936Z,26.44
2023-07-06T08:57:44.940Z,26.44
2023-07-06T08:58:44.998Z,26.46
2023-07-06T08:59:45.031Z,26.47
2023-07-06T09:00:45.086Z,26.47
2023-07-06T09:01:46.258Z,26.47
2023-07-06T09:02:46.255Z,26.48
2023-07-06T09:03:45.261Z,26.48
2023-07-06T09:04:45.256Z,26.48
2023-07-06T09:05:45.295Z,26.48
2023-07-06T09:06:45.365Z,26.48
2023-07-06T09:07:46.410Z,26.47
2023-07-06T09:08:47.202Z,26.46
2023-07-06T09:09:45.487Z,26.45
2023-07-06T09:10:46.549Z,26.45
2023-07-06T09:11:45.608Z,26.45
2023-07-06T09:12:46.644Z,26.42
2023-07-06T09:13:45.712Z,26.42
2023-07-06T09:14:46.691Z,26.41
2023-07-06T09:15:46.729Z,26.41
2023-07-06T09:16:45.796Z,26.41
2023-07-06T09:17:46.894Z,26.41
2023-07-06T09:18:46.848Z,26.41
2023-07-06T09:19:45.988Z,26.43
2023-07-06T09:20:45.900Z,26.44
2023-07-06T09:21:46.938Z,26.46
2023-07-06T09:22:46.965Z,26.46
2023-07-06T09:23:46.015Z,26.47
2023-07-06T09:24:46.091Z,26.46
2023-07-06T09:25:46.103Z,26.47
2023-07-06T09:26:47.148Z,26.48
2023-07-06T09:27:47.194Z,26.48
2023-07-06T09:28:46.204Z,26.48
2023-07-06T09:29:46.241Z,26.47
2023-07-06T09:30:47.318Z,26.47
2023-07-06T09:31:46.317Z,26.46
2023-07-06T09:32:46.527Z,26.45
2023-07-06T09:33:46.391Z,26.44
2023-07-06T09:34:46.734Z,26.44
2023-07-06T09:35:46.468Z,26.43
2023-07-06T09:36:47.494Z,26.42
2023-07-06T09:37:46.533Z,26.43
2023-07-06T09:38:47.555Z,26.41
2023-07-06T09:39:47.575Z,26.40
2023-07-06T09:40:47.659Z,26.40
2023-07-06T09:41:47.677Z,26.38
2023-07-06T09:42:46.667Z,26.38
2023-07-06T09:43:47.748Z,26.37
2023-07-06T09:44:47.733Z,26.37
2023-07-06T09:45:46.760Z,26.36
2023-07-06T09:46:46.824Z,26.35
2023-07-06T09:47:46.888Z,26.35
2023-07-06T09:48:46.880Z,26.34
2023-07-06T09:49:47.926Z,26.34
2023-07-06T09:50:46.959Z,26.34
2023-07-06T09:51:47.022Z,26.34
2023-07-06T09:52:48.053Z,26.33
2023-07-06T09:53:47.103Z,26.33
2023-07-06T09:54:48.150Z,26.32
2023-07-06T09:55:48.193Z,26.32
2023-07-06T09:56:48.299Z,26.33
2023-07-06T09:57:47.282Z,26.33
2023-07-06T09:58:48.332Z,26.33
2023-07-06T09:59:47.374Z,26.36
2023-07-06T10:00:48.445Z,26.39
2023-07-06T10:01:48.464Z,26.43
2023-07-06T10:02:47.547Z,26.46
2023-07-06T10:03:48.533Z,26.50
2023-07-06T10:04:48.650Z,26.52
2023-07-06T10:05:47.556Z,26.52
2023-07-06T10:06:48.602Z,26.54
2023-07-06T10:07:48.599Z,26.54
2023-07-06T10:08:48.621Z,26.52
2023-07-06T10:09:47.654Z,26.53
2023-07-06T10:10:48.698Z,26.55
2023-07-06T10:11:47.706Z,26.59
2023-07-06T10:12:48.756Z,26.59
2023-07-06T10:13:48.887Z,26.63
2023-07-06T10:14:47.777Z,26.65
2023-07-06T10:15:47.814Z,26.66
2023-07-06T10:16:48.919Z,26.67
2023-07-06T10:17:48.911Z,26.71
2023-07-06T10:18:47.872Z,26.72
2023-07-06T10:19:47.876Z,26.73
2023-07-06T10:20:47.925Z,26.73
2023-07-06T10:21:47.934Z,26.75
2023-07-06T10:22:47.948Z,26.75
2023-07-06T10:23:47.956Z,26.77
2023-07-06T10:24:48.967Z,26.77
2023-07-06T10:25:48.990Z,26.76
2023-07-06T10:26:47.986Z,26.76
2023-07-06T10:27:49.004Z,26.78
2023-07-06T10:28:48.108Z,26.79
2023-07-06T10:29:48.030Z,26.81
2023-07-06T10:30:48.045Z,26.82
2023-07-06T10:31:49.088Z,26.84
2023-07-06T10:32:49.103Z,26.85
2023-07-06T10:33:49.083Z,26.86
2023-07-06T10:34:48.090Z,26.87
2023-07-06T10:35:48.100Z,26.88
2023-07-06T10:36:48.144Z,26.91
2023-07-06T10:37:49.123Z,26.92
2023-07-06T10:38:49.116Z,26.94
2023-07-06T10:39:48.114Z,26.97
2023-07-06T10:40:49.114Z,26.98
2023-07-06T10:41:48.111Z,27.00
2023-07-06T10:42:48.101Z,27.03
2023-07-06T10:43:48.094Z,27.08
2023-07-06T10:44:49.163Z,27.09
2023-07-06T10:45:49.122Z,27.10
2023-07-06T10:46:48.118Z,27.11
2023-07-06T10:47:49.167Z,27.14
2023-07-06T10:48:48.124Z,27.15
2023-07-06T10:49:48.137Z,27.16
2023-07-06T10:50:48.124Z,27.18
2023-07-06T10:51:48.146Z,27.18
2023-07-06T10:52:49.141Z,27.19
2023-07-06T10:53:49.156Z,27.21
2023-07-06T10:54:48.263Z,27.20
2023-07-06T10:55:49.189Z,27.20
2023-07-06T10:56:49.215Z,27.20
2023-07-06T10:57:48.207Z,27.20
2023-07-06T10:58:49.211Z,27.20
2023-07-06T10:59:48.226Z,27.20
2023-07-06T11:00:48.273Z,27.22
2023-07-06T11:01:49.310Z,27.24
2023-07-06T11:02:48.337Z,27.25
2023-07-06T11:03:49.291Z,27.26
2023-07-06T11:04:49.268Z,27.28
2023-07-06T11:05:48.308Z,27.28
2023-07-06T11:06:48.387Z,27.29
2023-07-06T11:07:48.455Z,27.29
2023-07-06T11:08:48.507Z,27.29
2023-07-06T11:09:48.558Z,27.32
2023-07-06T11:10:48.602Z,27.33
2023-07-06T11:11:48.681Z,27.34
2023-07-06T11:12:48.722Z,27.34
2023-07-06T11:13:49.876Z,27.36
2023-07-06T11:14:48.854Z,27.36
2023-07-06T11:15:50.163Z,27.39
2023-07-06T11:16:49.016Z,27.40
2023-07-06T11:17:49.159Z,27.41
2023-07-06T11:18:49.096Z,27.42
2023-07-06T11:19:49.169Z,27.44
2023-07-06T11:20:50.220Z,27.44
2023-07-06T11:21:49.290Z,27.45
2023-07-06T11:22:50.334Z,27.46
2023-07-06T11:23:50.404Z,27.47
2023-07-06T11:24:49.470Z,27.47
2023-07-06T11:25:49.491Z,27.49
2023-07-06T11:26:50.547Z,27.50
2023-07-06T11:27:49.616Z,27.50
2023-07-06T11:28:50.667Z,27.51
2023-07-06T11:29:50.720Z,27.53
2023-07-06T11:30:50.784Z,27.52
2023-07-06T11:31:49.982Z,27.51
2023-07-06T11:32:49.945Z,27.50
2023-07-06T11:33:50.950Z,27.51
2023-07-06T11:34:51.000Z,27.52
2023-07-06T11:35:51.092Z,27.54
2023-07-06T11:36:50.114Z,27.55
2023-07-06T11:37:58.354Z,27.57
2023-07-06T11:38:51.176Z,27.57
2023-07-06T11:39:50.163Z,27.57
2023-07-06T11:40:51.149Z,27.56
2023-07-06T11:41:51.152Z,27.55
2023-07-06T11:42:51.158Z,27.57
2023-07-06T11:43:50.145Z,27.58
2023-07-06T11:44:50.137Z,27.60
2023-07-06T11:45:51.126Z,27.62
2023-07-06T11:46:51.156Z,27.62
2023-07-06T11:47:50.211Z,27.62
2023-07-06T11:48:51.182Z,27.61
2023-07-06T11:49:50.235Z,27.61
2023-07-06T11:50:50.318Z,27.61
2023-07-06T11:51:51.343Z,27.59
2023-07-06T11:52:51.381Z,27.58
2023-07-06T11:53:50.420Z,27.57
2023-07-06T11:54:50.582Z,27.55
2023-07-06T11:55:51.537Z,27.53
2023-07-06T11:56:51.635Z,27.52
2023-07-06T11:57:51.670Z,27.54
2023-07-06T11:58:50.671Z,27.55
2023-07-06T11:59:50.735Z,27.55
2023-07-06T12:00:51.815Z,27.56
2023-07-06T12:01:51.835Z,27.57
2023-07-06T12:02:51.920Z,27.58
2023-07-06T12:03:51.018Z,27.58
2023-07-06T12:04:52.017Z,27.59
2023-07-06T12:05:52.534Z,27.59
2023-07-06T12:06:51.099Z,27.58
2023-07-06T12:07:52.145Z,27.55
2023-07-06T12:08:52.201Z,27.56
2023-07-06T12:09:51.238Z,27.56
2023-07-06T12:10:52.290Z,27.57
2023-07-06T12:11:52.350Z,27.57
2023-07-06T12:12:52.401Z,27.55
2023-07-06T12:13:51.487Z,27.56
2023-07-06T12:14:51.493Z,27.60
2023-07-06T12:15:51.574Z,27.62
2023-07-06T12:16:52.644Z,27.61
2023-07-06T12:17:51.754Z,27.61
2023-07-06T12:18:51.713Z,27.60
2023-07-06T12:19:52.797Z,27.59
2023-07-06T12:20:52.849Z,27.58
2023-07-06T12:21:52.901Z,27.57
2023-07-06T12:22:51.964Z,27.57
2023-07-06T12:23:53.048Z,27.55
2023-07-06T12:24:53.071Z,27.50
2023-07-06T12:25:52.129Z,27.50
2023-07-06T12:26:52.179Z,27.49
2023-07-06T12:27:52.288Z,27.50
2023-07-06T12:28:54.926Z,27.50
2023-07-06T12:29:53.305Z,27.49
2023-07-06T12:30:52.307Z,27.49
2023-07-06T12:31:53.276Z,27.50
2023-07-06T12:32:53.276Z,27.48
2023-07-06T12:33:53.255Z,27.46
2023-07-06T12:34:53.257Z,27.45
2023-07-06T12:35:53.263Z,27.44
2023-07-06T12:36:52.229Z,27.44
2023-07-06T12:37:52.230Z,27.44
2023-07-06T12:38:53.931Z,27.44
2023-07-06T12:39:52.222Z,27.43
2023-07-06T12:40:53.227Z,27.42
2023-07-06T12:41:53.194Z,27.43
2023-07-06T12:42:52.188Z,27.43
2023-07-06T12:43:53.197Z,27.43
2023-07-06T12:44:52.233Z,27.40
2023-07-06T12:45:52.259Z,27.40
2023-07-06T12:46:53.267Z,27.40
2023-07-06T12:47:53.165Z,27.41
2023-07-06T12:48:52.148Z,27.40
2023-07-06T12:50:52.142Z,27.38
2023-07-06T12:51:52.171Z,27.35
2023-07-06T12:52:52.149Z,27.35
2023-07-06T12:53:53.129Z,27.36
2023-07-06T12:54:52.120Z,27.34
2023-07-06T12:55:52.110Z,27.33
2023-07-06T12:56:52.094Z,27.33
2023-07-06T12:57:52.100Z,27.31